createdAt,value
2023-04-25T00:01:48.717Z,78.63
2023-04-25T00:11:50.641Z,79.86
2023-04-25T00:21:56.952Z,80.33
2023-04-25T00:32:04.959Z,81.93
2023-04-25T00:42:07.215Z,83.77
2023-04-25T00:52:34.215Z,84.59
2023-04-25T01:02:37.557Z,86.37
2023-04-25T01:12:45.739Z,87.04
2023-04-25T01:22:56.286Z,87.46
2023-04-25T01:32:58.906Z,88.25
2023-04-25T01:43:02.141Z,88.92
2023-04-25T01:53:05.075Z,89.46
2023-04-25T02:03:09.997Z,89.00
2023-04-25T02:13:26.330Z,89.33
2023-04-25T02:23:29.409Z,90.10
2023-04-25T02:33:31.453Z,89.87
2023-04-25T02:43:33.556Z,89.56
2023-04-25T02:53:35.723Z,89.83
2023-04-25T03:03:37.702Z,90.71
2023-04-25T03:13:39.716Z,91.16
2023-04-25T03:23:41.748Z,89.65
2023-04-25T03:33:43.679Z,88.61
2023-04-25T03:43:45.664Z,89.63
2023-04-25T03:53:47.679Z,88.56
2023-04-25T04:03:50.102Z,89.49
2023-04-25T04:13:53.614Z,90.20
2023-04-25T04:23:56.087Z,90.52
2023-04-25T04:33:58.116Z,90.98
2023-04-25T04:44:02.399Z,90.71
2023-04-25T04:54:05.081Z,90.81
2023-04-25T05:04:13.149Z,90.63
2023-04-25T05:14:16.528Z,91.50
2023-04-25T05:24:19.676Z,91.63
2023-04-25T05:34:21.756Z,90.39
2023-04-25T05:44:24.835Z,90.90
2023-04-25T05:54:52.378Z,90.87
2023-04-25T06:05:00.781Z,89.50
2023-04-25T06:15:10.506Z,88.93
2023-04-25T06:25:20.113Z,89.02
2023-04-25T06:35:22.564Z,89.33
2023-04-25T06:45:37.237Z,88.79
2023-04-25T06:55:50.269Z,90.72
2023-04-25T07:05:52.234Z,90.98
2023-04-25T07:15:56.064Z,91.18
2023-04-25T07:26:04.257Z,89.57
2023-04-25T07:36:06.591Z,89.44
2023-04-25T07:46:09.678Z,88.21
2023-04-25T07:56:17.888Z,85.68
2023-04-25T08:06:41.948Z,87.29
2023-04-25T08:16:49.891Z,86.73
2023-04-25T08:26:54.118Z,85.18
2023-04-25T08:36:57.251Z,84.92
2023-04-25T08:47:07.227Z,84.99
2023-04-25T08:57:09.463Z,84.08
2023-04-25T09:07:13.590Z,83.38
2023-04-25T09:17:15.579Z,84.11
2023-04-25T09:27:24.262Z,83.71
2023-04-25T09:37:36.179Z,82.65
2023-04-25T09:47:41.410Z,83.14
2023-04-25T09:57:47.510Z,82.03
2023-04-25T10:07:49.622Z,81.48
2023-04-25T10:17:52.427Z,80.60
2023-04-25T10:28:02.228Z,81.02
2023-04-25T10:38:13.757Z,79.85
2023-04-25T10:48:31.472Z,80.32
2023-04-25T10:58:33.675Z,78.32
2023-04-25T11:08:50.971Z,76.00
2023-04-25T11:19:01.451Z,76.21
2023-04-25T11:29:18.720Z,75.15
2023-04-25T11:39:39.147Z,74.90
2023-04-25T11:49:41.129Z,72.40
2023-04-25T11:59:49.190Z,74.59
2023-04-25T12:09:58.586Z,73.97
2023-04-25T12:20:01.121Z,75.52
2023-04-25T12:30:06.297Z,77.04
2023-04-25T12:40:10.139Z,76.71
2023-04-25T12:50:16.185Z,77.47
2023-04-25T13:00:21.025Z,77.85
2023-04-25T13:10:23.040Z,77.20
2023-04-25T13:20:27.220Z,78.06
2023-04-25T13:30:29.475Z,80.90
2023-04-25T13:40:33.195Z,80.67
2023-04-25T13:50:41.338Z,78.02
2023-04-25T14:00:48.342Z,76.47
2023-04-25T14:10:50.367Z,77.79
2023-04-25T14:20:52.584Z,78.35
2023-04-25T14:30:56.756Z,80.13
2023-04-25T14:41:05.623Z,77.77
2023-04-25T14:51:09.243Z,77.74
2023-04-25T15:01:14.401Z,80.18
2023-04-25T15:11:19.439Z,80.58
2023-04-25T15:21:22.115Z,80.77
2023-04-25T15:31:25.198Z,80.92
2023-04-25T15:41:48.296Z,83.58
2023-04-25T15:51:53.584Z,82.49
2023-04-25T16:02:16.689Z,83.75
2023-04-25T16:12:18.913Z,83.17
2023-04-25T16:22:22.212Z,83.41
2023-04-25T16:32:30.269Z,83.26
2023-04-25T16:42:32.289Z,83.78
2023-04-25T16:52:59.453Z,84.24
2023-04-25T17:03:04.636Z,84.47
2023-04-25T17:13:12.626Z,85.61
2023-04-25T17:23:19.496Z,86.09
2023-04-25T17:33:38.328Z,86.79
2023-04-25T17:44:08.690Z,87.57
2023-04-25T17:54:12.162Z,88.22
2023-04-25T18:04:20.850Z,86.93
2023-04-25T18:14:23.071Z,87.46
2023-04-25T18:24:27.605Z,88.97
2023-04-25T18:34:31.632Z,89.30
2023-04-25T18:44:37.765Z,89.75
2023-04-25T18:54:40.323Z,90.47
2023-04-25T19:04:44.032Z,91.00
2023-04-25T19:14:46.793Z,91.27
2023-04-25T19:24:55.709Z,91.09
2023-04-25T19:35:12.387Z,90.88
2023-04-25T19:45:16.957Z,92.05
2023-04-25T19:55:20.062Z,91.94
2023-04-25T20:05:22.613Z,92.10
2023-04-25T20:15:26.436Z,91.85
2023-04-25T20:25:30.203Z,92.39
2023-04-25T20:35:34.616Z,91.70
2023-04-25T20:45:48.999Z,92.66
2023-04-25T20:56:01.802Z,92.26
2023-04-25T21:06:05.055Z,91.99
2023-04-25T21:16:11.047Z,92.66
2023-04-25T21:26:13.053Z,93.77
2023-04-25T21:36:14.964Z,92.82
2023-04-25T21:46:23.506Z,93.03
2023-04-25T21:56:26.129Z,92.45
2023-04-25T22:06:30.058Z,91.84
2023-04-25T22:16:33.722Z,91.09
2023-04-25T22:26:36.085Z,90.99
2023-04-25T22:36:40.786Z,90.87
2023-04-25T22:46:43.442Z,92.12
2023-04-25T22:56:45.515Z,90.86
2023-04-25T23:06:49.017Z,89.73
2023-04-25T23:17:00.524Z,88.15
2023-04-25T23:27:04.160Z,88.02
2023-04-25T23:37:06.222Z,87.45
2023-04-25T23:47:10.295Z,87.76
2023-04-25T23:57:12.402Z,87.38
